sensor_id;sensor_type;location;lat;lon;timestamp;temperature;humidity
5011;DHT22;2524;54.364;10.072;2023-02-22T00:01:15;7.60;99.90
5011;DHT22;2524;54.364;10.072;2023-02-22T00:03:49;7.60;99.90
5011;DHT22;2524;54.364;10.072;2023-02-22T00:06:18;7.60;99.90
5011;DHT22;2524;54.364;10.072;2023-02-22T00:08:47;7.60;99.90
5011;DHT22;2524;54.364;10.072;2023-02-22T00:11:14;7.60;99.90
5011;DHT22;2524;54.364;10.072;2023-02-22T00:13:40;7.60;99.90
5011;DHT22;2524;54.364;10.072;2023-02-22T00:16:14;7.60;99.90
5011;DHT22;2524;54.364;10.072;2023-02-22T00:18:40;7.60;99.90
5011;DHT22;2524;54.364;10.072;2023-02-22T00:21:06;7.70;99.90
5011;DHT22;2524;54.364;10.072;2023-02-22T00:23:35;7.70;99.90
5011;DHT22;2524;54.364;10.072;2023-02-22T00:26:05;7.70;99.90
5011;DHT22;2524;54.364;10.072;2023-02-22T00:28:37;7.60;99.90
5011;DHT22;2524;54.364;10.072;2023-02-22T00:31:05;7.60;99.90
5011;DHT22;2524;54.364;10.072;2023-02-22T00:33:32;7.60;99.90
5011;DHT22;2524;54.364;10.072;2023-02-22T00:35:58;7.60;99.90
5011;DHT22;2524;54.364;10.072;2023-02-22T00:38:24;7.60;99.90
5011;DHT22;2524;54.364;10.072;2023-02-22T00:40:50;7.60;99.90
5011;DHT22;2524;54.364;10.072;2023-02-22T00:43:16;7.70;99.90
5011;DHT22;2524;54.364;10.072;2023-02-22T00:45:42;7.80;99.90
5011;DHT22;2524;54.364;10.072;2023-02-22T00:48:08;7.60;99.90
5011;DHT22;2524;54.364;10.072;2023-02-22T00:50:35;7.80;99.90
5011;DHT22;2524;54.364;10.072;2023-02-22T00:53:02;7.80;99.90
5011;DHT22;2524;54.364;10.072;2023-02-22T00:55:31;7.60;99.90
5011;DHT22;2524;54.364;10.072;2023-02-22T00:57:58;7.70;99.90
5011;DHT22;2524;54.364;10.072;2023-02-22T01:00:33;7.80;99.90
5011;DHT22;2524;54.364;10.072;2023-02-22T01:03:00;7.60;99.90
5011;DHT22;2524;54.364;10.072;2023-02-22T01:05:28;7.60;99.90
5011;DHT22;2524;54.364;10.072;2023-02-22T01:07:55;7.60;99.90
5011;DHT22;2524;54.364;10.072;2023-02-22T01:10:24;7.70;99.90
5011;DHT22;2524;54.364;10.072;2023-02-22T01:12:51;7.60;99.90
5011;DHT22;2524;54.364;10.072;2023-02-22T01:15:21;7.60;99.90
5011;DHT22;2524;54.364;10.072;2023-02-22T01:17:49;7.60;99.90
5011;DHT22;2524;54.364;10.072;2023-02-22T01:20:16;7.70;99.90
5011;DHT22;2524;54.364;10.072;2023-02-22T01:22:46;7.60;99.90
5011;DHT22;2524;54.364;10.072;2023-02-22T01:25:17;7.60;99.90
5011;DHT22;2524;54.364;10.072;2023-02-22T01:27:43;7.70;99.90
5011;DHT22;2524;54.364;10.072;2023-02-22T01:30:11;7.60;99.90
5011;DHT22;2524;54.364;10.072;2023-02-22T01:32:38;7.60;99.90
5011;DHT22;2524;54.364;10.072;2023-02-22T01:35:08;7.70;99.90
5011;DHT22;2524;54.364;10.072;2023-02-22T01:37:34;7.60;99.90
5011;DHT22;2524;54.364;10.072;2023-02-22T01:40:01;7.60;99.90
5011;DHT22;2524;54.364;10.072;2023-02-22T01:42:27;7.60;99.90
5011;DHT22;2524;54.364;10.072;2023-02-22T01:50:36;7.50;99.90
5011;DHT22;2524;54.364;10.072;2023-02-22T01:53:04;7.50;99.90
5011;DHT22;2524;54.364;10.072;2023-02-22T01:55:32;7.50;99.90
5011;DHT22;2524;54.364;10.072;2023-02-22T01:57:58;7.60;99.90
5011;DHT22;2524;54.364;10.072;2023-02-22T02:00:24;7.50;99.90
5011;DHT22;2524;54.364;10.072;2023-02-22T02:02:57;7.40;99.90
5011;DHT22;2524;54.364;10.072;2023-02-22T02:05:28;7.50;99.90
5011;DHT22;2524;54.364;10.072;2023-02-22T02:08:00;7.50;99.90
5011;DHT22;2524;54.364;10.072;2023-02-22T02:10:31;7.50;99.90
5011;DHT22;2524;54.364;10.072;2023-02-22T02:12:57;7.50;99.90
5011;DHT22;2524;54.364;10.072;2023-02-22T02:15:28;7.60;99.90
5011;DHT22;2524;54.364;10.072;2023-02-22T02:17:59;7.50;99.90
5011;DHT22;2524;54.364;10.072;2023-02-22T02:20:41;7.50;99.90
5011;DHT22;2524;54.364;10.072;2023-02-22T02:34:57;7.50;99.90
5011;DHT22;2524;54.364;10.072;2023-02-22T02:40:57;7.50;99.90
5011;DHT22;2524;54.364;10.072;2023-02-22T02:43:43;7.50;99.90
5011;DHT22;2524;54.364;10.072;2023-02-22T02:46:14;7.50;99.90
5011;DHT22;2524;54.364;10.072;2023-02-22T02:48:48;7.50;99.90
5011;DHT22;2524;54.364;10.072;2023-02-22T02:51:16;7.50;99.90
5011;DHT22;2524;54.364;10.072;2023-02-22T02:53:45;7.50;99.90
5011;DHT22;2524;54.364;10.072;2023-02-22T02:56:12;7.50;99.90
5011;DHT22;2524;54.364;10.072;2023-02-22T02:58:47;7.50;99.90
5011;DHT22;2524;54.364;10.072;2023-02-22T03:02:21;7.60;99.90
5011;DHT22;2524;54.364;10.072;2023-02-22T03:04:29;7.60;99.90
5011;DHT22;2524;54.364;10.072;2023-02-22T03:12:47;7.50;99.90
5011;DHT22;2524;54.364;10.072;2023-02-22T03:18:27;7.50;99.90
5011;DHT22;2524;54.364;10.072;2023-02-22T03:23:50;7.60;99.90
5011;DHT22;2524;54.364;10.072;2023-02-22T03:26:59;7.50;99.90
5011;DHT22;2524;54.364;10.072;2023-02-22T03:29:20;7.60;99.90
5011;DHT22;2524;54.364;10.072;2023-02-22T03:31:52;7.60;99.90
5011;DHT22;2524;54.364;10.072;2023-02-22T03:34:25;7.60;99.90
5011;DHT22;2524;54.364;10.072;2023-02-22T03:36:56;7.50;99.90
5011;DHT22;2524;54.364;10.072;2023-02-22T03:39:24;7.50;99.90
5011;DHT22;2524;54.364;10.072;2023-02-22T03:41:57;7.50;99.90
5011;DHT22;2524;54.364;10.072;2023-02-22T03:44:28;7.50;99.90
5011;DHT22;2524;54.364;10.072;2023-02-22T03:46:55;7.50;99.90
5011;DHT22;2524;54.364;10.072;2023-02-22T03:49:43;7.50;99.90
5011;DHT22;2524;54.364;10.072;2023-02-22T03:52:10;7.50;99.90
5011;DHT22;2524;54.364;10.072;2023-02-22T03:54:37;7.40;99.90
5011;DHT22;2524;54.364;10.072;2023-02-22T03:57:24;7.40;99.90
5011;DHT22;2524;54.364;10.072;2023-02-22T03:59:50;7.40;99.90
5011;DHT22;2524;54.364;10.072;2023-02-22T04:02:16;7.40;99.90
5011;DHT22;2524;54.364;10.072;2023-02-22T04:04:44;7.40;99.90
5011;DHT22;2524;54.364;10.072;2023-02-22T04:07:10;7.40;99.90
5011;DHT22;2524;54.364;10.072;2023-02-22T04:09:36;7.40;99.90
5011;DHT22;2524;54.364;10.072;2023-02-22T04:12:01;7.50;99.90
5011;DHT22;2524;54.364;10.072;2023-02-22T04:14:28;7.30;99.90
5011;DHT22;2524;54.364;10.072;2023-02-22T04:16:54;7.30;99.90
5011;DHT22;2524;54.364;10.072;2023-02-22T04:19:20;7.30;99.90
5011;DHT22;2524;54.364;10.072;2023-02-22T04:21:45;7.30;99.90
5011;DHT22;2524;54.364;10.072;2023-02-22T04:24:11;7.30;99.90
5011;DHT22;2524;54.364;10.072;2023-02-22T04:26:37;7.30;99.90
5011;DHT22;2524;54.364;10.072;2023-02-22T04:29:02;7.30;99.90
5011;DHT22;2524;54.364;10.072;2023-02-22T04:31:29;7.30;99.90
5011;DHT22;2524;54.364;10.072;2023-02-22T04:33:55;7.30;99.90
5011;DHT22;2524;54.364;10.072;2023-02-22T04:36:20;7.30;99.90
5011;DHT22;2524;54.364;10.072;2023-02-22T04:38:46;7.30;99.90
5011;DHT22;2524;54.364;10.072;2023-02-22T04:41:12;7.50;99.90
5011;DHT22;2524;54.364;10.072;2023-02-22T04:43:38;7.30;99.90
5011;DHT22;2524;54.364;10.072;2023-02-22T04:46:04;7.30;99.90
5011;DHT22;2524;54.364;10.072;2023-02-22T04:48:29;7.40;99.90
5011;DHT22;2524;54.364;10.072;2023-02-22T04:50:55;7.40;99.90
5011;DHT22;2524;54.364;10.072;2023-02-22T04:53:21;7.40;99.90
5011;DHT22;2524;54.364;10.072;2023-02-22T04:55:46;7.50;99.90
5011;DHT22;2524;54.364;10.072;2023-02-22T04:58:12;7.40;99.90
5011;DHT22;2524;54.364;10.072;2023-02-22T05:00:37;7.40;99.90
5011;DHT22;2524;54.364;10.072;2023-02-22T05:03:03;7.40;99.90
5011;DHT22;2524;54.364;10.072;2023-02-22T05:05:29;7.40;99.90
5011;DHT22;2524;54.364;10.072;2023-02-22T05:07:54;7.40;99.90
5011;DHT22;2524;54.364;10.072;2023-02-22T05:10:20;7.50;99.90
5011;DHT22;2524;54.364;10.072;2023-02-22T05:12:45;7.50;99.90
5011;DHT22;2524;54.364;10.072;2023-02-22T05:15:16;7.50;99.90
5011;DHT22;2524;54.364;10.072;2023-02-22T05:17:41;7.60;99.90
5011;DHT22;2524;54.364;10.072;2023-02-22T05:20:09;7.50;99.90
5011;DHT22;2524;54.364;10.072;2023-02-22T05:22:41;7.50;99.90
5011;DHT22;2524;54.364;10.072;2023-02-22T05:25:07;7.50;99.90
5011;DHT22;2524;54.364;10.072;2023-02-22T05:27:33;7.50;99.90
5011;DHT22;2524;54.364;10.072;2023-02-22T05:29:58;7.50;99.90
5011;DHT22;2524;54.364;10.072;2023-02-22T05:32:24;7.50;99.90
5011;DHT22;2524;54.364;10.072;2023-02-22T05:34:50;7.50;99.90
5011;DHT22;2524;54.364;10.072;2023-02-22T05:37:15;7.50;99.90
5011;DHT22;2524;54.364;10.072;2023-02-22T05:39:41;7.50;99.90
5011;DHT22;2524;54.364;10.072;2023-02-22T05:42:06;7.50;99.90
5011;DHT22;2524;54.364;10.072;2023-02-22T05:44:32;7.50;99.90
5011;DHT22;2524;54.364;10.072;2023-02-22T05:46:58;7.50;99.90
5011;DHT22;2524;54.364;10.072;2023-02-22T05:49:23;7.50;99.90
5011;DHT22;2524;54.364;10.072;2023-02-22T05:51:49;7.40;99.90
5011;DHT22;2524;54.364;10.072;2023-02-22T05:54:14;7.40;99.90
5011;DHT22;2524;54.364;10.072;2023-02-22T05:56:40;7.40;99.90
5011;DHT22;2524;54.364;10.072;2023-02-22T05:59:06;7.40;99.90
5011;DHT22;2524;54.364;10.072;2023-02-22T06:01:32;7.40;99.90
5011;DHT22;2524;54.364;10.072;2023-02-22T06:03:57;7.40;99.90
5011;DHT22;2524;54.364;10.072;2023-02-22T06:06:23;7.30;99.90
5011;DHT22;2524;54.364;10.072;2023-02-22T06:08:49;7.30;99.90
5011;DHT22;2524;54.364;10.072;2023-02-22T06:11:14;7.30;99.90
5011;DHT22;2524;54.364;10.072;2023-02-22T06:13:40;7.30;99.90
5011;DHT22;2524;54.364;10.072;2023-02-22T06:16:06;7.30;99.90
5011;DHT22;2524;54.364;10.072;2023-02-22T06:18:33;7.30;99.90
5011;DHT22;2524;54.364;10.072;2023-02-22T06:20:59;7.30;99.90
5011;DHT22;2524;54.364;10.072;2023-02-22T06:23:25;7.30;99.90
5011;DHT22;2524;54.364;10.072;2023-02-22T06:25:51;7.30;99.90
5011;DHT22;2524;54.364;10.072;2023-02-22T06:28:17;7.30;99.90
5011;DHT22;2524;54.364;10.072;2023-02-22T06:30:42;7.30;99.90
5011;DHT22;2524;54.364;10.072;2023-02-22T06:33:09;7.20;99.90
5011;DHT22;2524;54.364;10.072;2023-02-22T06:35:34;7.30;99.90
5011;DHT22;2524;54.364;10.072;2023-02-22T06:38:00;7.30;99.90
5011;DHT22;2524;54.364;10.072;2023-02-22T06:40:26;7.20;99.90
5011;DHT22;2524;54.364;10.072;2023-02-22T06:42:54;7.20;99.90
5011;DHT22;2524;54.364;10.072;2023-02-22T06:45:19;7.30;99.90
5011;DHT22;2524;54.364;10.072;2023-02-22T06:47:45;7.20;99.90
5011;DHT22;2524;54.364;10.072;2023-02-22T06:50:31;7.20;99.90
5011;DHT22;2524;54.364;10.072;2023-02-22T06:52:57;7.30;99.90
5011;DHT22;2524;54.364;10.072;2023-02-22T06:55:27;7.30;99.90
5011;DHT22;2524;54.364;10.072;2023-02-22T06:57:53;7.20;99.90
5011;DHT22;2524;54.364;10.072;2023-02-22T07:00:21;7.30;99.90
5011;DHT22;2524;54.364;10.072;2023-02-22T07:02:49;7.30;99.90
5011;DHT22;2524;54.364;10.072;2023-02-22T07:05:17;7.30;99.90
5011;DHT22;2524;54.364;10.072;2023-02-22T07:07:43;7.30;99.90
5011;DHT22;2524;54.364;10.072;2023-02-22T07:10:17;7.30;99.90
5011;DHT22;2524;54.364;10.072;2023-02-22T07:12:43;7.30;99.90
5011;DHT22;2524;54.364;10.072;2023-02-22T07:15:09;7.30;99.90
5011;DHT22;2524;54.364;10.072;2023-02-22T07:17:34;7.30;99.90
5011;DHT22;2524;54.364;10.072;2023-02-22T07:20:00;7.40;99.90
5011;DHT22;2524;54.364;10.072;2023-02-22T07:22:25;7.40;99.90
5011;DHT22;2524;54.364;10.072;2023-02-22T07:24:51;7.40;99.90
5011;DHT22;2524;54.364;10.072;2023-02-22T07:27:17;7.40;99.90
5011;DHT22;2524;54.364;10.072;2023-02-22T07:29:42;7.50;99.90
5011;DHT22;2524;54.364;10.072;2023-02-22T07:32:09;7.50;99.90
5011;DHT22;2524;54.364;10.072;2023-02-22T07:34:34;7.50;99.90
5011;DHT22;2524;54.364;10.072;2023-02-22T07:37:00;7.50;99.90
5011;DHT22;2524;54.364;10.072;2023-02-22T07:39:25;7.50;99.90
5011;DHT22;2524;54.364;10.072;2023-02-22T07:41:51;7.50;99.90
5011;DHT22;2524;54.364;10.072;2023-02-22T07:44:17;7.60;99.90
5011;DHT22;2524;54.364;10.072;2023-02-22T07:46:46;7.60;99.90
5011;DHT22;2524;54.364;10.072;2023-02-22T07:49:13;7.60;99.90
5011;DHT22;2524;54.364;10.072;2023-02-22T07:51:39;7.60;99.90
5011;DHT22;2524;54.364;10.072;2023-02-22T07:54:04;7.60;99.90
5011;DHT22;2524;54.364;10.072;2023-02-22T07:56:30;7.60;99.90
5011;DHT22;2524;54.364;10.072;2023-02-22T07:58:56;7.60;99.90
5011;DHT22;2524;54.364;10.072;2023-02-22T08:01:21;7.60;99.90
5011;DHT22;2524;54.364;10.072;2023-02-22T08:03:49;7.60;99.90
5011;DHT22;2524;54.364;10.072;2023-02-22T08:06:14;7.60;99.90
5011;DHT22;2524;54.364;10.072;2023-02-22T08:08:40;7.70;99.90
5011;DHT22;2524;54.364;10.072;2023-02-22T08:11:07;7.70;99.90
5011;DHT22;2524;54.364;10.072;2023-02-22T08:13:32;7.70;99.90
5011;DHT22;2524;54.364;10.072;2023-02-22T08:15:58;7.70;99.90
5011;DHT22;2524;54.364;10.072;2023-02-22T08:18:24;7.80;99.90
5011;DHT22;2524;54.364;10.072;2023-02-22T08:20:50;7.70;99.90
5011;DHT22;2524;54.364;10.072;2023-02-22T08:23:18;7.70;99.90
5011;DHT22;2524;54.364;10.072;2023-02-22T08:25:43;7.70;99.90
5011;DHT22;2524;54.364;10.072;2023-02-22T08:28:14;7.70;99.90
5011;DHT22;2524;54.364;10.072;2023-02-22T08:30:41;7.80;99.90
5011;DHT22;2524;54.364;10.072;2023-02-22T08:33:11;7.80;99.90
5011;DHT22;2524;54.364;10.072;2023-02-22T08:35:43;7.80;99.90
5011;DHT22;2524;54.364;10.072;2023-02-22T08:38:20;7.90;99.90
5011;DHT22;2524;54.364;10.072;2023-02-22T08:40:46;7.80;99.90
5011;DHT22;2524;54.364;10.072;2023-02-22T08:43:12;7.80;99.90
5011;DHT22;2524;54.364;10.072;2023-02-22T08:45:38;7.80;99.90
5011;DHT22;2524;54.364;10.072;2023-02-22T08:48:04;7.90;99.90
5011;DHT22;2524;54.364;10.072;2023-02-22T08:50:31;7.80;99.90
5011;DHT22;2524;54.364;10.072;2023-02-22T08:53:00;7.80;99.90
5011;DHT22;2524;54.364;10.072;2023-02-22T08:55:31;7.90;99.90
5011;DHT22;2524;54.364;10.072;2023-02-22T08:57:57;7.90;99.90
5011;DHT22;2524;54.364;10.072;2023-02-22T09:00:23;7.90;99.90
5011;DHT22;2524;54.364;10.072;2023-02-22T09:02:50;7.90;99.90
5011;DHT22;2524;54.364;10.072;2023-02-22T09:05:15;7.90;99.90
5011;DHT22;2524;54.364;10.072;2023-02-22T09:07:42;7.90;99.90
5011;DHT22;2524;54.364;10.072;2023-02-22T09:10:12;8.00;99.90
5011;DHT22;2524;54.364;10.072;2023-02-22T09:12:40;8.00;99.90
5011;DHT22;2524;54.364;10.072;2023-02-22T09:15:05;8.00;99.90
5011;DHT22;2524;54.364;10.072;2023-02-22T09:17:31;8.00;99.90
5011;DHT22;2524;54.364;10.072;2023-02-22T09:19:57;8.10;99.90
5011;DHT22;2524;54.364;10.072;2023-02-22T09:22:23;8.10;99.90
5011;DHT22;2524;54.364;10.072;2023-02-22T09:24:51;8.10;99.90
5011;DHT22;2524;54.364;10.072;2023-02-22T09:27:16;8.10;99.90
5011;DHT22;2524;54.364;10.072;2023-02-22T09:29:47;8.20;99.90
5011;DHT22;2524;54.364;10.072;2023-02-22T09:32:12;8.20;99.90
5011;DHT22;2524;54.364;10.072;2023-02-22T09:34:38;8.20;99.90
5011;DHT22;2524;54.364;10.072;2023-02-22T09:37:10;8.30;99.90
5011;DHT22;2524;54.364;10.072;2023-02-22T09:39:36;8.30;99.90
5011;DHT22;2524;54.364;10.072;2023-02-22T09:42:10;8.30;99.90
5011;DHT22;2524;54.364;10.072;2023-02-22T09:44:51;8.40;99.90
5011;DHT22;2524;54.364;10.072;2023-02-22T09:47:23;8.40;99.90
5011;DHT22;2524;54.364;10.072;2023-02-22T09:50:09;8.40;99.90
5011;DHT22;2524;54.364;10.072;2023-02-22T09:53:04;8.50;99.90
5011;DHT22;2524;54.364;10.072;2023-02-22T09:58:05;8.50;99.90
5011;DHT22;2524;54.364;10.072;2023-02-22T10:00:36;8.50;99.90
5011;DHT22;2524;54.364;10.072;2023-02-22T10:05:44;8.60;99.90
5011;DHT22;2524;54.364;10.072;2023-02-22T10:08:15;8.60;99.90
5011;DHT22;2524;54.364;10.072;2023-02-22T10:10:45;8.60;99.90
5011;DHT22;2524;54.364;10.072;2023-02-22T10:19:00;8.70;99.90
5011;DHT22;2524;54.364;10.072;2023-02-22T10:24:34;8.70;99.90
5011;DHT22;2524;54.364;10.072;2023-02-22T10:27:05;8.70;99.90
5011;DHT22;2524;54.364;10.072;2023-02-22T10:29:42;8.80;99.90
5011;DHT22;2524;54.364;10.072;2023-02-22T10:32:23;8.80;99.90
5011;DHT22;2524;54.364;10.072;2023-02-22T10:34:50;8.80;99.90
5011;DHT22;2524;54.364;10.072;2023-02-22T10:39:50;8.90;99.90
5011;DHT22;2524;54.364;10.072;2023-02-22T10:42:19;8.90;99.90
5011;DHT22;2524;54.364;10.072;2023-02-22T10:44:46;9.00;99.90
5011;DHT22;2524;54.364;10.072;2023-02-22T10:47:13;9.00;99.90
5011;DHT22;2524;54.364;10.072;2023-02-22T10:49:59;9.10;99.90
5011;DHT22;2524;54.364;10.072;2023-02-22T10:52:31;9.10;99.90
5011;DHT22;2524;54.364;10.072;2023-02-22T10:54:59;9.10;99.90
5011;DHT22;2524;54.364;10.072;2023-02-22T10:57:33;9.10;99.90
5011;DHT22;2524;54.364;10.072;2023-02-22T11:00:19;9.20;99.90
5011;DHT22;2524;54.364;10.072;2023-02-22T11:02:53;9.20;99.90
5011;DHT22;2524;54.364;10.072;2023-02-22T11:10:41;9.30;99.90
5011;DHT22;2524;54.364;10.072;2023-02-22T11:13:33;9.30;99.90
5011;DHT22;2524;54.364;10.072;2023-02-22T11:16:17;9.40;99.90
5011;DHT22;2524;54.364;10.072;2023-02-22T11:18:45;9.40;99.90
5011;DHT22;2524;54.364;10.072;2023-02-22T11:21:12;9.40;99.90
5011;DHT22;2524;54.364;10.072;2023-02-22T11:23:41;9.40;99.90
5011;DHT22;2524;54.364;10.072;2023-02-22T11:26:11;9.50;99.90
5011;DHT22;2524;54.364;10.072;2023-02-22T11:28:43;9.50;99.90
5011;DHT22;2524;54.364;10.072;2023-02-22T11:31:24;9.50;99.90
5011;DHT22;2524;54.364;10.072;2023-02-22T11:33:58;9.60;99.90
5011;DHT22;2524;54.364;10.072;2023-02-22T11:38:55;9.60;99.90
5011;DHT22;2524;54.364;10.072;2023-02-22T11:41:29;9.60;99.90
5011;DHT22;2524;54.364;10.072;2023-02-22T11:46:50;9.70;99.90
5011;DHT22;2524;54.364;10.072;2023-02-22T11:49:16;9.70;99.90
5011;DHT22;2524;54.364;10.072;2023-02-22T11:57:17;9.80;99.90
5011;DHT22;2524;54.364;10.072;2023-02-22T12:03:09;9.80;99.90
5011;DHT22;2524;54.364;10.072;2023-02-22T12:11:11;9.90;99.90
5011;DHT22;2524;54.364;10.072;2023-02-22T12:16:22;9.90;99.90
5011;DHT22;2524;54.364;10.072;2023-02-22T12:19:14;10.00;99.90
5011;DHT22;2524;54.364;10.072;2023-02-22T12:21:46;10.00;99.90
5011;DHT22;2524;54.364;10.072;2023-02-22T12:24:24;10.00;99.90
5011;DHT22;2524;54.364;10.072;2023-02-22T12:27:13;10.00;99.90
5011;DHT22;2524;54.364;10.072;2023-02-22T12:29:47;10.00;99.90
5011;DHT22;2524;54.364;10.072;2023-02-22T12:37:55;10.00;99.90
5011;DHT22;2524;54.364;10.072;2023-02-22T12:40:34;10.00;99.90
5011;DHT22;2524;54.364;10.072;2023-02-22T12:43:22;10.00;99.90
5011;DHT22;2524;54.364;10.072;2023-02-22T12:46:06;10.00;99.90
5011;DHT22;2524;54.364;10.072;2023-02-22T12:48:51;10.00;99.90
5011;DHT22;2524;54.364;10.072;2023-02-22T12:56:56;10.00;99.90
5011;DHT22;2524;54.364;10.072;2023-02-22T12:59:36;10.00;99.90
5011;DHT22;2524;54.364;10.072;2023-02-22T13:02:33;10.00;99.90
5011;DHT22;2524;54.364;10.072;2023-02-22T13:05:00;10.00;99.90
5011;DHT22;2524;54.364;10.072;2023-02-22T13:10:29;10.00;99.90
5011;DHT22;2524;54.364;10.072;2023-02-22T13:21:21;10.00;99.90
5011;DHT22;2524;54.364;10.072;2023-02-22T13:24:04;10.00;99.90
5011;DHT22;2524;54.364;10.072;2023-02-22T13:26:49;10.00;99.90
5011;DHT22;2524;54.364;10.072;2023-02-22T13:29:40;10.00;99.90
5011;DHT22;2524;54.364;10.072;2023-02-22T13:32:44;10.00;99.90
5011;DHT22;2524;54.364;10.072;2023-02-22T13:35:34;10.00;99.90
5011;DHT22;2524;54.364;10.072;2023-02-22T13:49:05;10.10;99.90
5011;DHT22;2524;54.364;10.072;2023-02-22T13:51:52;10.10;99.90
5011;DHT22;2524;54.364;10.072;2023-02-22T13:54:49;10.10;99.90
5011;DHT22;2524;54.364;10.072;2023-02-22T13:57:25;10.10;99.90
5011;DHT22;2524;54.364;10.072;2023-02-22T14:03:01;10.10;99.90
5011;DHT22;2524;54.364;10.072;2023-02-22T14:11:38;10.20;99.90
5011;DHT22;2524;54.364;10.072;2023-02-22T14:16:23;10.10;99.90
5011;DHT22;2524;54.364;10.072;2023-02-22T14:19:20;10.00;99.90
5011;DHT22;2524;54.364;10.072;2023-02-22T14:22:03;10.00;99.90
5011;DHT22;2524;54.364;10.072;2023-02-22T14:24:47;10.00;99.90
5011;DHT22;2524;54.364;10.072;2023-02-22T14:27:13;10.00;99.90
5011;DHT22;2524;54.364;10.072;2023-02-22T14:29:51;10.00;99.90
5011;DHT22;2524;54.364;10.072;2023-02-22T14:32:18;10.00;99.90
5011;DHT22;2524;54.364;10.072;2023-02-22T14:34:53;10.00;99.90
5011;DHT22;2524;54.364;10.072;2023-02-22T14:37:29;10.00;99.90
5011;DHT22;2524;54.364;10.072;2023-02-22T14:40:03;10.00;99.90
5011;DHT22;2524;54.364;10.072;2023-02-22T14:43:21;10.00;99.90
5011;DHT22;2524;54.364;10.072;2023-02-22T14:45:30;10.00;99.90
5011;DHT22;2524;54.364;10.072;2023-02-22T14:48:27;10.00;99.90
5011;DHT22;2524;54.364;10.072;2023-02-22T14:51:14;10.00;99.90
5011;DHT22;2524;54.364;10.072;2023-02-22T14:53:51;10.00;99.90
5011;DHT22;2524;54.364;10.072;2023-02-22T14:56:24;10.00;99.90
5011;DHT22;2524;54.364;10.072;2023-02-22T15:01:41;9.90;99.90
5011;DHT22;2524;54.364;10.072;2023-02-22T15:04:27;9.90;99.90
5011;DHT22;2524;54.364;10.072;2023-02-22T15:06:54;9.90;99.90
5011;DHT22;2524;54.364;10.072;2023-02-22T15:09:30;9.90;99.90
5011;DHT22;2524;54.364;10.072;2023-02-22T15:14:31;9.90;99.90
5011;DHT22;2524;54.364;10.072;2023-02-22T15:17:06;9.80;99.90
5011;DHT22;2524;54.364;10.072;2023-02-22T15:20:11;9.90;99.90
5011;DHT22;2524;54.364;10.072;2023-02-22T15:23:00;9.90;99.90
5011;DHT22;2524;54.364;10.072;2023-02-22T15:25:29;9.80;99.90
5011;DHT22;2524;54.364;10.072;2023-02-22T15:28:01;9.80;99.90
5011;DHT22;2524;54.364;10.072;2023-02-22T15:30:29;9.80;99.90
5011;DHT22;2524;54.364;10.072;2023-02-22T15:33:10;9.80;99.90
5011;DHT22;2524;54.364;10.072;2023-02-22T15:35:36;9.90;99.90
5011;DHT22;2524;54.364;10.072;2023-02-22T15:40:37;9.80;99.90
5011;DHT22;2524;54.364;10.072;2023-02-22T15:43:19;9.90;99.90
5011;DHT22;2524;54.364;10.072;2023-02-22T15:46:16;9.70;99.90
5011;DHT22;2524;54.364;10.072;2023-02-22T15:49:16;9.70;99.90
5011;DHT22;2524;54.364;10.072;2023-02-22T16:05:59;9.60;99.90
5011;DHT22;2524;54.364;10.072;2023-02-22T16:22:00;9.60;99.90
5011;DHT22;2524;54.364;10.072;2023-02-22T16:28:24;9.50;99.90
5011;DHT22;2524;54.364;10.072;2023-02-22T17:00:02;9.30;99.90
5011;DHT22;2524;54.364;10.072;2023-02-22T17:02:34;9.30;99.90
5011;DHT22;2524;54.364;10.072;2023-02-22T17:05:00;9.30;99.90
5011;DHT22;2524;54.364;10.072;2023-02-22T17:07:34;9.30;99.90
5011;DHT22;2524;54.364;10.072;2023-02-22T17:19:21;9.30;99.90
5011;DHT22;2524;54.364;10.072;2023-02-22T17:21:48;9.20;99.90
5011;DHT22;2524;54.364;10.072;2023-02-22T17:24:16;9.20;99.90
5011;DHT22;2524;54.364;10.072;2023-02-22T17:29:41;9.20;99.90
5011;DHT22;2524;54.364;10.072;2023-02-22T17:51:04;9.10;99.90
5011;DHT22;2524;54.364;10.072;2023-02-22T17:57:04;9.10;99.90
5011;DHT22;2524;54.364;10.072;2023-02-22T17:59:41;9.20;99.90
5011;DHT22;2524;54.364;10.072;2023-02-22T18:02:23;9.20;99.90
5011;DHT22;2524;54.364;10.072;2023-02-22T18:35:19;9.10;99.90
5011;DHT22;2524;54.364;10.072;2023-02-22T20:21:19;9.00;99.90
5011;DHT22;2524;54.364;10.072;2023-02-22T20:42:06;8.90;99.90
5011;DHT22;2524;54.364;10.072;2023-02-22T20:44:40;8.90;99.90
5011;DHT22;2524;54.364;10.072;2023-02-22T20:47:22;8.90;99.90
5011;DHT22;2524;54.364;10.072;2023-02-22T20:50:02;8.90;99.90
5011;DHT22;2524;54.364;10.072;2023-02-22T20:52:54;8.80;99.90
5011;DHT22;2524;54.364;10.072;2023-02-22T20:55:21;8.80;99.90
5011;DHT22;2524;54.364;10.072;2023-02-22T20:57:50;8.80;99.90
5011;DHT22;2524;54.364;10.072;2023-02-22T21:07:09;8.80;99.90
5011;DHT22;2524;54.364;10.072;2023-02-22T21:17:11;8.80;99.90
5011;DHT22;2524;54.364;10.072;2023-02-22T21:20:04;8.70;99.90
5011;DHT22;2524;54.364;10.072;2023-02-22T21:23:01;8.70;99.90
5011;DHT22;2524;54.364;10.072;2023-02-22T21:48:55;8.70;99.90
5011;DHT22;2524;54.364;10.072;2023-02-22T21:54:32;8.70;99.90
5011;DHT22;2524;54.364;10.072;2023-02-22T21:57:02;8.70;99.90
5011;DHT22;2524;54.364;10.072;2023-02-22T21:59:39;8.70;99.90
5011;DHT22;2524;54.364;10.072;2023-02-22T22:02:09;8.70;99.90
5011;DHT22;2524;54.364;10.072;2023-02-22T22:04:35;8.80;99.90
5011;DHT22;2524;54.364;10.072;2023-02-22T22:07:02;8.70;99.90
5011;DHT22;2524;54.364;10.072;2023-02-22T22:10:10;8.80;99.90
5011;DHT22;2524;54.364;10.072;2023-02-22T22:12:47;8.70;99.90
5011;DHT22;2524;54.364;10.072;2023-02-22T22:15:15;8.70;99.90
5011;DHT22;2524;54.364;10.072;2023-02-22T22:17:42;8.70;99.90
5011;DHT22;2524;54.364;10.072;2023-02-22T22:20:26;8.70;99.90
5011;DHT22;2524;54.364;10.072;2023-02-22T22:22:55;8.70;99.90
5011;DHT22;2524;54.364;10.072;2023-02-22T22:25:20;8.70;99.90
5011;DHT22;2524;54.364;10.072;2023-02-22T22:27:48;8.70;99.90
5011;DHT22;2524;54.364;10.072;2023-02-22T22:30:14;8.70;99.90
5011;DHT22;2524;54.364;10.072;2023-02-22T22:32:41;8.70;99.90
5011;DHT22;2524;54.364;10.072;2023-02-22T22:35:08;8.70;99.90
5011;DHT22;2524;54.364;10.072;2023-02-22T22:37:40;8.70;99.90
5011;DHT22;2524;54.364;10.072;2023-02-22T22:40:16;8.70;99.90
5011;DHT22;2524;54.364;10.072;2023-02-22T22:42:42;8.60;99.90
5011;DHT22;2524;54.364;10.072;2023-02-22T22:45:10;8.70;99.90
5011;DHT22;2524;54.364;10.072;2023-02-22T22:47:39;8.60;99.90
5011;DHT22;2524;54.364;10.072;2023-02-22T22:50:18;8.70;99.90
5011;DHT22;2524;54.364;10.072;2023-02-22T22:52:44;8.60;99.90
5011;DHT22;2524;54.364;10.072;2023-02-22T22:55:10;8.60;99.90
5011;DHT22;2524;54.364;10.072;2023-02-22T22:57:38;8.70;99.90
5011;DHT22;2524;54.364;10.072;2023-02-22T23:00:08;8.60;99.90
5011;DHT22;2524;54.364;10.072;2023-02-22T23:02:54;8.60;99.90
5011;DHT22;2524;54.364;10.072;2023-02-22T23:05:25;8.60;99.90
5011;DHT22;2524;54.364;10.072;2023-02-22T23:07:53;8.60;99.90
5011;DHT22;2524;54.364;10.072;2023-02-22T23:10:23;8.60;99.90
5011;DHT22;2524;54.364;10.072;2023-02-22T23:12:55;8.60;99.90
5011;DHT22;2524;54.364;10.072;2023-02-22T23:15:22;8.60;99.90
5011;DHT22;2524;54.364;10.072;2023-02-22T23:17:52;8.60;99.90
5011;DHT22;2524;54.364;10.072;2023-02-22T23:20:23;8.60;99.90
5011;DHT22;2524;54.364;10.072;2023-02-22T23:22:51;8.70;99.90